createdAt,value
2022-11-29T00:01:30.618Z,29.77
2022-11-29T00:03:57.380Z,32.55
2022-11-29T00:06:27.055Z,29.07
2022-11-29T00:08:55.714Z,29.83
2022-11-29T00:11:25.205Z,30.00
2022-11-29T00:13:51.613Z,29.38
2022-11-29T00:16:18.105Z,29.70
2022-11-29T00:18:44.598Z,31.13
2022-11-29T00:21:11.027Z,26.58
2022-11-29T00:23:37.460Z,25.92
2022-11-29T00:26:06.379Z,26.20
2022-11-29T00:28:34.039Z,28.58
2022-11-29T00:31:00.692Z,29.57
2022-11-29T00:33:27.181Z,27.42
2022-11-29T00:35:53.594Z,30.20
2022-11-29T00:38:20.035Z,27.77
2022-11-29T00:40:51.241Z,28.13
2022-11-29T00:43:17.648Z,27.57
2022-11-29T00:45:44.095Z,29.45
2022-11-29T00:48:10.573Z,28.80
2022-11-29T00:50:37.061Z,24.65
2022-11-29T00:53:03.470Z,28.45
2022-11-29T00:55:29.933Z,30.13
2022-11-29T00:57:56.330Z,29.80
2022-11-29T01:00:22.875Z,26.70
2022-11-29T01:02:49.310Z,28.02
2022-11-29T01:05:15.846Z,27.33
2022-11-29T01:07:42.298Z,27.43
2022-11-29T01:10:09.337Z,29.80
2022-11-29T01:12:39.667Z,28.48
2022-11-29T01:15:07.911Z,27.80
2022-11-29T01:17:39.060Z,29.27
2022-11-29T01:20:09.082Z,28.20
2022-11-29T01:22:36.076Z,33.30
2022-11-29T01:25:02.832Z,31.80
2022-11-29T01:27:29.559Z,33.08
2022-11-29T01:29:56.012Z,27.70
2022-11-29T01:32:22.528Z,32.27
2022-11-29T01:34:48.956Z,30.20
2022-11-29T01:37:15.527Z,30.48
2022-11-29T01:39:42.146Z,30.77
2022-11-29T01:42:12.973Z,24.10
2022-11-29T01:44:39.471Z,27.27
2022-11-29T01:47:05.917Z,28.83
2022-11-29T01:49:55.969Z,27.58
2022-11-29T01:52:25.780Z,30.25
2022-11-29T01:54:56.524Z,32.25
2022-11-29T01:57:23.840Z,39.93
2022-11-29T01:59:56.699Z,31.00
2022-11-29T02:02:43.216Z,34.53
2022-11-29T02:05:12.226Z,36.40
2022-11-29T02:07:38.820Z,28.65
2022-11-29T02:10:07.052Z,27.87
2022-11-29T02:12:56.623Z,27.73
2022-11-29T02:15:33.349Z,28.55
2022-11-29T02:18:06.344Z,29.98
2022-11-29T02:20:51.620Z,26.80
2022-11-29T02:23:23.804Z,30.13
2022-11-29T02:25:59.251Z,28.67
2022-11-29T02:28:37.551Z,25.35
2022-11-29T02:31:39.180Z,25.13
2022-11-29T02:34:43.214Z,24.63
2022-11-29T02:37:47.522Z,25.37
2022-11-29T02:40:39.052Z,31.50
2022-11-29T02:43:13.004Z,34.65
2022-11-29T02:46:21.412Z,33.72
2022-11-29T02:49:00.035Z,44.33
2022-11-29T02:51:41.352Z,35.70
2022-11-29T02:54:13.482Z,36.83
2022-11-29T02:56:58.164Z,39.85
2022-11-29T02:59:27.193Z,43.08
2022-11-29T03:02:19.841Z,33.90
2022-11-29T03:05:10.405Z,26.67
2022-11-29T03:07:37.013Z,31.80
2022-11-29T03:10:08.843Z,36.75
2022-11-29T03:12:46.665Z,35.55
2022-11-29T03:15:25.055Z,44.08
2022-11-29T03:18:25.619Z,41.60
2022-11-29T03:21:24.403Z,40.20
2022-11-29T03:23:55.376Z,38.15
2022-11-29T03:26:30.405Z,35.08
2022-11-29T03:29:06.502Z,35.47
2022-11-29T03:31:56.964Z,29.87
2022-11-29T03:34:38.519Z,36.85
2022-11-29T03:37:28.760Z,28.05
2022-11-29T03:40:21.120Z,35.53
2022-11-29T03:43:04.091Z,32.33
2022-11-29T03:45:33.439Z,30.10
2022-11-29T03:48:07.804Z,33.58
2022-11-29T03:50:50.607Z,40.63
2022-11-29T03:53:32.623Z,37.42
2022-11-29T03:56:01.699Z,35.20
2022-11-29T03:58:39.181Z,36.40
2022-11-29T04:01:35.354Z,35.00
2022-11-29T04:04:23.263Z,36.08
2022-11-29T04:07:04.989Z,39.92
2022-11-29T04:09:48.748Z,28.25
2022-11-29T04:12:34.034Z,28.87
2022-11-29T04:15:33.861Z,32.50
2022-11-29T04:18:37.124Z,42.20
2022-11-29T04:21:09.341Z,38.78
2022-11-29T04:24:10.921Z,32.17
2022-11-29T04:27:07.035Z,33.63
2022-11-29T04:29:50.177Z,35.50
2022-11-29T04:32:54.277Z,32.85
2022-11-29T04:35:43.003Z,35.60
2022-11-29T04:38:18.605Z,39.97
2022-11-29T04:41:02.920Z,39.50
2022-11-29T04:44:02.489Z,39.03
2022-11-29T04:46:36.607Z,32.05
2022-11-29T04:49:05.755Z,41.45
2022-11-29T04:51:47.250Z,36.55
2022-11-29T04:54:39.969Z,41.33
2022-11-29T04:57:14.075Z,28.48
2022-11-29T04:59:54.015Z,38.28
2022-11-29T05:02:55.894Z,39.05
2022-11-29T05:05:37.576Z,38.55
2022-11-29T05:08:22.667Z,37.10
2022-11-29T05:11:18.855Z,32.70
2022-11-29T05:13:57.742Z,24.63
2022-11-29T05:16:36.941Z,29.00
2022-11-29T05:19:20.478Z,32.08
2022-11-29T05:22:00.933Z,37.03
2022-11-29T05:24:59.848Z,35.75
2022-11-29T05:28:10.211Z,39.17
2022-11-29T05:31:18.564Z,35.47
2022-11-29T05:33:45.004Z,27.63
2022-11-29T05:36:32.968Z,38.50
2022-11-29T05:39:29.226Z,36.78
2022-11-29T05:42:49.839Z,34.20
2022-11-29T05:45:40.818Z,24.27
2022-11-29T05:48:44.911Z,32.10
2022-11-29T05:51:29.398Z,39.20
2022-11-29T05:54:08.215Z,33.30
2022-11-29T05:56:40.608Z,37.90
2022-11-29T05:59:17.805Z,39.63
2022-11-29T06:01:53.206Z,38.60
2022-11-29T06:04:27.818Z,33.37
2022-11-29T06:07:06.755Z,35.65
2022-11-29T06:09:47.664Z,29.90
2022-11-29T06:12:21.229Z,32.42
2022-11-29T06:15:04.308Z,32.45
2022-11-29T06:17:39.599Z,38.77
2022-11-29T06:20:30.768Z,38.40
2022-11-29T06:23:15.450Z,29.98
2022-11-29T06:26:06.594Z,27.30
2022-11-29T06:28:59.493Z,27.00
2022-11-29T06:31:55.700Z,26.63
2022-11-29T06:34:33.169Z,30.75
2022-11-29T06:37:31.490Z,28.65
2022-11-29T06:39:58.066Z,29.23
2022-11-29T06:42:24.473Z,25.00
2022-11-29T06:44:51.127Z,27.93
2022-11-29T06:47:46.970Z,27.80
2022-11-29T06:50:22.518Z,27.42
2022-11-29T06:53:05.675Z,24.58
2022-11-29T06:55:38.059Z,31.05
2022-11-29T06:58:13.648Z,33.57
2022-11-29T07:01:10.747Z,28.08
2022-11-29T07:04:01.788Z,33.63
2022-11-29T07:06:29.502Z,34.17
2022-11-29T07:09:12.848Z,31.98
2022-11-29T07:11:39.936Z,33.80
2022-11-29T07:14:06.666Z,27.45
2022-11-29T07:16:40.146Z,30.98
2022-11-29T07:19:16.476Z,31.38
2022-11-29T07:22:06.843Z,33.78
2022-11-29T07:24:51.898Z,34.27
2022-11-29T07:27:33.228Z,36.65
2022-11-29T07:30:13.777Z,32.75
2022-11-29T07:32:50.180Z,28.05
2022-11-29T07:35:29.144Z,30.63
2022-11-29T07:38:09.417Z,33.47
2022-11-29T07:40:56.967Z,30.70
2022-11-29T07:43:51.392Z,29.55
2022-11-29T07:46:17.845Z,32.83
2022-11-29T07:48:44.320Z,34.53
2022-11-29T07:51:10.992Z,38.03
2022-11-29T07:53:41.915Z,34.60
2022-11-29T07:56:08.688Z,35.33
2022-11-29T07:58:35.860Z,26.90
2022-11-29T08:01:03.063Z,33.63
2022-11-29T08:03:29.854Z,30.87
2022-11-29T08:05:56.568Z,34.08
2022-11-29T08:08:22.949Z,32.13
2022-11-29T08:10:49.467Z,33.85
2022-11-29T08:13:15.845Z,35.70
2022-11-29T08:15:45.959Z,35.17
2022-11-29T08:18:12.796Z,35.75
2022-11-29T08:20:39.612Z,33.13
2022-11-29T08:23:06.063Z,29.80
2022-11-29T08:25:32.457Z,27.25
2022-11-29T08:27:58.925Z,29.97
2022-11-29T08:30:25.348Z,25.20
2022-11-29T08:32:52.789Z,31.13
2022-11-29T08:35:21.199Z,29.42
2022-11-29T08:37:47.887Z,26.88
2022-11-29T08:40:15.247Z,26.13
2022-11-29T08:42:41.896Z,27.73
2022-11-29T08:45:09.068Z,27.77
2022-11-29T08:47:36.105Z,28.17
2022-11-29T08:50:13.883Z,28.15
2022-11-29T08:52:45.004Z,29.07
2022-11-29T08:55:11.555Z,29.02
2022-11-29T08:57:40.245Z,31.02
2022-11-29T09:00:07.683Z,33.03
2022-11-29T09:02:34.169Z,30.33
2022-11-29T09:05:00.690Z,27.03
2022-11-29T09:07:27.160Z,31.48
2022-11-29T09:09:53.623Z,31.38
2022-11-29T09:12:20.061Z,32.55
2022-11-29T09:14:46.696Z,31.65
2022-11-29T09:17:13.341Z,31.63
2022-11-29T09:19:39.765Z,26.85
2022-11-29T09:22:06.232Z,30.40
2022-11-29T09:24:33.809Z,29.40
2022-11-29T09:27:00.324Z,29.13
2022-11-29T09:29:26.735Z,32.30
2022-11-29T09:31:53.253Z,29.98
2022-11-29T09:34:19.658Z,30.88
2022-11-29T09:36:46.061Z,30.98
2022-11-29T09:39:12.494Z,33.70
2022-11-29T09:41:51.377Z,31.13
2022-11-29T09:44:55.905Z,32.85
2022-11-29T09:47:51.860Z,30.90
2022-11-29T09:50:38.044Z,33.13
2022-11-29T09:53:33.739Z,30.70
2022-11-29T09:56:28.721Z,30.10
2022-11-29T09:59:02.594Z,30.60
2022-11-29T10:01:37.468Z,29.95
2022-11-29T10:04:10.212Z,28.95
2022-11-29T10:06:41.999Z,31.25
2022-11-29T10:09:17.011Z,33.27
2022-11-29T10:12:19.834Z,33.13
2022-11-29T10:15:00.176Z,33.47
2022-11-29T10:17:44.899Z,33.95
2022-11-29T10:20:17.754Z,36.95
2022-11-29T10:23:06.653Z,37.83
2022-11-29T10:25:44.112Z,37.47
2022-11-29T10:28:15.851Z,36.58
2022-11-29T10:30:43.429Z,31.98
2022-11-29T10:33:35.085Z,28.60
2022-11-29T10:36:37.504Z,35.23
2022-11-29T10:39:14.462Z,33.92
2022-11-29T10:41:41.440Z,34.33
2022-11-29T10:44:13.543Z,35.08
2022-11-29T10:46:40.259Z,32.50
2022-11-29T10:49:13.193Z,31.13
2022-11-29T10:51:39.604Z,30.42
2022-11-29T10:54:44.120Z,27.10
2022-11-29T10:57:18.926Z,29.83
2022-11-29T11:00:02.029Z,31.65
2022-11-29T11:02:28.757Z,28.60
2022-11-29T11:04:55.396Z,27.08
2022-11-29T11:07:36.228Z,28.38
2022-11-29T11:10:22.012Z,28.63
2022-11-29T11:13:21.570Z,28.38
2022-11-29T11:15:48.246Z,29.17
2022-11-29T11:18:23.856Z,27.65
2022-11-29T11:20:57.077Z,25.88
2022-11-29T11:23:30.479Z,28.23
2022-11-29T11:26:01.301Z,29.83
2022-11-29T11:28:42.257Z,28.53
2022-11-29T11:31:10.940Z,29.83
2022-11-29T11:33:45.098Z,28.17
2022-11-29T11:36:22.889Z,26.63
2022-11-29T11:38:52.100Z,27.25
2022-11-29T11:41:23.449Z,25.60
2022-11-29T11:43:53.155Z,28.20
2022-11-29T11:46:20.005Z,32.72
2022-11-29T11:48:47.120Z,34.63
2022-11-29T11:51:25.380Z,30.73
2022-11-29T11:53:56.545Z,29.30
2022-11-29T11:56:24.129Z,29.80
2022-11-29T11:58:55.155Z,26.90
2022-11-29T12:01:37.986Z,26.27
2022-11-29T12:04:27.296Z,26.27
2022-11-29T12:06:59.220Z,23.37
2022-11-29T12:09:43.437Z,24.20
2022-11-29T12:12:19.463Z,24.20
2022-11-29T12:14:51.922Z,24.23
2022-11-29T12:17:27.929Z,24.70
2022-11-29T12:20:16.843Z,25.47
2022-11-29T12:23:01.861Z,23.17
2022-11-29T12:25:34.957Z,23.55
2022-11-29T12:28:01.519Z,25.83
2022-11-29T12:30:28.094Z,23.92
2022-11-29T12:33:06.251Z,25.77
2022-11-29T12:36:05.193Z,25.70
2022-11-29T12:38:43.649Z,26.25
2022-11-29T12:41:31.214Z,25.05
2022-11-29T12:44:03.412Z,24.88
2022-11-29T12:46:30.865Z,26.83
2022-11-29T12:49:22.867Z,24.95
2022-11-29T12:52:21.655Z,27.25
2022-11-29T12:55:06.515Z,26.83
2022-11-29T12:57:50.915Z,26.98
2022-11-29T13:00:19.913Z,25.23
2022-11-29T13:02:58.792Z,27.80
2022-11-29T13:05:40.478Z,27.67
2022-11-29T13:08:22.573Z,27.05
2022-11-29T13:11:01.988Z,27.08
2022-11-29T13:14:20.302Z,28.87
2022-11-29T13:16:58.613Z,28.08
2022-11-29T13:19:34.990Z,26.65
2022-11-29T13:22:21.135Z,24.23
2022-11-29T13:24:52.247Z,24.95
2022-11-29T13:27:24.833Z,25.30
2022-11-29T13:29:51.462Z,24.13
2022-11-29T13:32:45.764Z,23.33
2022-11-29T13:35:30.151Z,22.25
2022-11-29T13:38:21.201Z,22.45
2022-11-29T13:41:04.431Z,22.00
2022-11-29T13:43:38.598Z,22.48
2022-11-29T13:46:28.076Z,20.77
2022-11-29T13:48:55.208Z,21.73
2022-11-29T13:51:38.607Z,23.30
2022-11-29T13:54:07.500Z,25.33
2022-11-29T13:56:42.936Z,25.30
2022-11-29T13:59:22.448Z,26.42
2022-11-29T14:01:51.450Z,26.55
2022-11-29T14:04:30.197Z,28.40
2022-11-29T14:07:04.959Z,26.40
2022-11-29T14:09:37.500Z,26.20
2022-11-29T14:12:19.247Z,26.58
2022-11-29T14:15:00.305Z,24.45
2022-11-29T14:17:26.687Z,25.33
2022-11-29T14:20:22.243Z,25.87
2022-11-29T14:23:06.614Z,25.83
2022-11-29T14:25:51.689Z,26.40
2022-11-29T14:28:21.539Z,26.92
2022-11-29T14:31:34.016Z,28.38
2022-11-29T14:34:08.426Z,25.53
2022-11-29T14:36:41.073Z,26.35
2022-11-29T14:39:18.756Z,24.85
2022-11-29T14:41:51.149Z,24.08
2022-11-29T14:44:25.457Z,27.02
2022-11-29T14:47:06.632Z,27.53
2022-11-29T14:49:42.360Z,27.45
2022-11-29T14:52:15.462Z,26.30
2022-11-29T14:55:17.354Z,26.27
2022-11-29T14:57:53.405Z,30.83
2022-11-29T15:00:38.108Z,29.10
2022-11-29T15:03:12.817Z,35.55
2022-11-29T15:06:14.706Z,31.85
2022-11-29T15:08:55.570Z,31.83
2022-11-29T15:11:30.434Z,31.15
2022-11-29T15:14:19.400Z,32.07
2022-11-29T15:16:58.028Z,33.28
2022-11-29T15:19:24.381Z,35.65
2022-11-29T15:22:21.003Z,35.28
2022-11-29T15:25:10.767Z,34.72
2022-11-29T15:27:40.137Z,36.37
2022-11-29T15:30:40.322Z,31.48
2022-11-29T15:33:18.511Z,33.63
2022-11-29T15:35:50.798Z,37.25
2022-11-29T15:38:18.816Z,30.60
2022-11-29T15:40:51.973Z,32.30
2022-11-29T15:43:35.380Z,30.60
2022-11-29T15:46:02.256Z,30.63
2022-11-29T15:48:31.307Z,30.35
2022-11-29T15:50:57.825Z,29.58
2022-11-29T15:53:31.132Z,27.60
2022-11-29T15:56:00.281Z,27.13
2022-11-29T15:58:29.060Z,28.40
2022-11-29T16:00:57.864Z,26.40
2022-11-29T16:03:28.472Z,26.13
2022-11-29T16:06:21.603Z,27.47
2022-11-29T16:08:49.711Z,26.13
2022-11-29T16:11:20.447Z,26.35
2022-11-29T16:14:26.750Z,24.02
2022-11-29T16:16:56.580Z,23.45
2022-11-29T16:19:34.168Z,25.83
2022-11-29T16:22:12.618Z,29.05
2022-11-29T16:24:45.586Z,28.40
2022-11-29T16:27:12.735Z,26.20
2022-11-29T16:29:44.103Z,26.90
2022-11-29T16:32:30.100Z,33.07
2022-11-29T16:35:06.074Z,30.00
2022-11-29T16:37:40.091Z,29.08
2022-11-29T16:40:18.912Z,34.28
2022-11-29T16:43:13.820Z,29.70
2022-11-29T16:45:41.765Z,32.90
2022-11-29T16:48:23.382Z,30.23
2022-11-29T16:51:11.390Z,27.73
2022-11-29T16:53:39.856Z,26.60
2022-11-29T16:56:11.209Z,26.45
2022-11-29T16:59:17.052Z,24.30
2022-11-29T17:01:31.086Z,25.83
2022-11-29T17:03:58.917Z,26.88
2022-11-29T17:06:26.848Z,29.00
2022-11-29T17:08:55.614Z,33.33
2022-11-29T17:11:22.312Z,35.20
2022-11-29T17:13:49.398Z,30.27
2022-11-29T17:16:20.705Z,31.77
2022-11-29T17:18:47.399Z,28.30
2022-11-29T17:21:20.671Z,26.85
2022-11-29T17:23:47.150Z,29.90
2022-11-29T17:26:13.778Z,31.00
2022-11-29T17:28:41.223Z,29.50
2022-11-29T17:31:12.538Z,31.40
2022-11-29T17:33:39.002Z,31.42
2022-11-29T17:36:10.854Z,34.67
2022-11-29T17:38:38.083Z,36.72
2022-11-29T17:41:08.722Z,35.50
2022-11-29T17:43:36.028Z,36.30
2022-11-29T17:46:09.474Z,37.25
2022-11-29T17:48:36.299Z,30.33
2022-11-29T17:51:02.754Z,29.30
2022-11-29T17:53:30.540Z,33.58
2022-11-29T17:56:05.850Z,30.80
2022-11-29T17:58:32.790Z,32.40
2022-11-29T18:01:14.045Z,32.87
2022-11-29T18:03:42.290Z,27.83
2022-11-29T18:06:13.942Z,31.95
2022-11-29T18:08:42.669Z,30.60
2022-11-29T18:11:12.380Z,34.00
2022-11-29T18:13:39.360Z,31.60
2022-11-29T18:16:12.022Z,32.67
2022-11-29T18:18:39.134Z,39.35
2022-11-29T18:21:07.876Z,42.78
2022-11-29T18:23:36.720Z,43.33
2022-11-29T18:26:10.275Z,38.90
2022-11-29T18:28:38.522Z,40.97
2022-11-29T18:31:14.933Z,42.85
2022-11-29T18:33:43.155Z,43.72
2022-11-29T18:36:12.406Z,44.08
2022-11-29T18:38:41.167Z,42.30
2022-11-29T18:41:09.589Z,45.35
2022-11-29T18:43:37.297Z,46.58
2022-11-29T18:46:10.847Z,47.63
2022-11-29T18:48:37.973Z,39.83
2022-11-29T18:51:06.624Z,37.83
2022-11-29T18:53:37.149Z,35.20
2022-11-29T18:56:08.508Z,33.90
2022-11-29T18:58:34.926Z,34.17
2022-11-29T19:01:18.653Z,40.95
2022-11-29T19:03:47.565Z,39.93
2022-11-29T19:06:16.723Z,41.85
2022-11-29T19:08:43.677Z,40.70
2022-11-29T19:11:13.437Z,40.78
2022-11-29T19:13:40.767Z,41.55
2022-11-29T19:16:12.752Z,34.03
2022-11-29T19:18:39.627Z,35.03
2022-11-29T19:21:12.781Z,34.85
2022-11-29T19:23:40.072Z,33.55
2022-11-29T19:26:08.779Z,34.20
2022-11-29T19:28:39.043Z,36.13
2022-11-29T19:31:06.156Z,34.40
2022-11-29T19:33:36.570Z,34.75
2022-11-29T19:36:20.647Z,34.97
2022-11-29T19:38:52.981Z,43.83
2022-11-29T19:41:22.513Z,42.20
2022-11-29T19:43:49.735Z,39.10
2022-11-29T19:46:18.982Z,31.83
2022-11-29T19:48:45.928Z,29.90
2022-11-29T19:51:14.270Z,42.55
2022-11-29T19:53:40.710Z,34.67
2022-11-29T19:56:09.201Z,41.95
2022-11-29T19:58:35.595Z,44.08
2022-11-29T20:01:13.398Z,36.15
2022-11-29T20:03:40.394Z,34.53
2022-11-29T20:06:08.637Z,34.10
2022-11-29T20:08:36.270Z,27.42
2022-11-29T20:11:11.117Z,27.65
2022-11-29T20:13:39.027Z,33.22
2022-11-29T20:16:08.715Z,25.60
2022-11-29T20:18:37.026Z,26.60
2022-11-29T20:21:08.715Z,27.77
2022-11-29T20:23:35.184Z,24.23
2022-11-29T20:26:01.625Z,28.23
2022-11-29T20:28:28.310Z,26.50
2022-11-29T20:30:54.862Z,28.17
2022-11-29T20:33:25.345Z,36.00
2022-11-29T20:36:12.540Z,45.63
2022-11-29T20:39:00.211Z,30.98
2022-11-29T20:41:41.391Z,30.27
2022-11-29T20:44:12.991Z,29.87
2022-11-29T20:46:39.543Z,35.13
2022-11-29T20:49:06.853Z,36.55
2022-11-29T20:51:44.242Z,28.20
2022-11-29T20:54:11.875Z,36.22
2022-11-29T20:56:38.288Z,28.97
2022-11-29T20:59:04.738Z,27.08
2022-11-29T21:01:31.246Z,26.70
2022-11-29T21:03:57.772Z,33.40
2022-11-29T21:06:24.223Z,42.72
2022-11-29T21:08:50.649Z,29.00
2022-11-29T21:11:17.426Z,32.03
2022-11-29T21:13:44.380Z,26.92
2022-11-29T21:16:12.392Z,25.67
2022-11-29T21:18:39.454Z,45.05
2022-11-29T21:21:39.682Z,36.10
2022-11-29T21:24:21.349Z,48.13
2022-11-29T21:26:51.134Z,36.08
2022-11-29T21:29:20.002Z,33.25
2022-11-29T21:31:49.155Z,36.00
2022-11-29T21:34:15.641Z,35.73
2022-11-29T21:36:44.310Z,27.60
2022-11-29T21:39:15.828Z,27.67
2022-11-29T21:41:42.526Z,27.42
2022-11-29T21:44:09.127Z,27.92
2022-11-29T21:46:35.971Z,26.87
2022-11-29T21:49:02.688Z,31.38
2022-11-29T21:51:29.097Z,28.02
2022-11-29T21:53:55.540Z,31.77
2022-11-29T21:56:21.952Z,31.10
2022-11-29T21:58:48.390Z,26.43
2022-11-29T22:01:18.197Z,30.48
2022-11-29T22:03:45.246Z,33.10
2022-11-29T22:06:14.141Z,33.58
2022-11-29T22:08:41.613Z,32.38
2022-11-29T22:11:10.853Z,35.60
2022-11-29T22:13:38.659Z,33.33
2022-11-29T22:16:09.776Z,30.73
2022-11-29T22:18:36.517Z,35.10
2022-11-29T22:21:05.568Z,32.92
2022-11-29T22:23:32.176Z,31.03
2022-11-29T22:26:06.436Z,29.38
2022-11-29T22:28:34.000Z,30.77
2022-11-29T22:31:11.300Z,34.58
2022-11-29T22:33:38.600Z,30.90
2022-11-29T22:36:10.594Z,32.33
2022-11-29T22:38:37.108Z,28.95
2022-11-29T22:41:11.691Z,27.45
2022-11-29T22:43:39.463Z,25.45
2022-11-29T22:46:26.746Z,26.60
2022-11-29T22:48:55.147Z,23.80
2022-11-29T22:51:30.389Z,26.02
2022-11-29T22:53:59.087Z,26.45
2022-11-29T22:56:31.606Z,25.08
2022-11-29T22:58:58.645Z,24.98
2022-11-29T23:01:27.408Z,24.10
2022-11-29T23:03:56.708Z,26.13
2022-11-29T23:06:31.377Z,24.50
2022-11-29T23:09:03.286Z,23.80
2022-11-29T23:11:30.818Z,21.80
2022-11-29T23:13:57.293Z,25.80
2022-11-29T23:16:28.663Z,27.30
2022-11-29T23:18:57.251Z,27.95
2022-11-29T23:21:26.789Z,25.08
2022-11-29T23:23:56.590Z,25.50
2022-11-29T23:26:23.332Z,24.47
2022-11-29T23:28:50.431Z,25.67
2022-11-29T23:31:17.576Z,25.30
2022-11-29T23:33:44.212Z,25.55
2022-11-29T23:36:11.594Z,24.30
2022-11-29T23:38:38.762Z,21.70
2022-11-29T23:41:06.974Z,27.45
2022-11-29T23:43:36.193Z,24.75
2022-11-29T23:46:07.674Z,26.73
2022-11-29T23:48:34.242Z,26.30
2022-11-29T23:51:00.758Z,28.13
2022-11-29T23:53:27.638Z,28.15
2022-11-29T23:55:57.917Z,27.05
2022-11-29T23:58:24.902Z,25.73
